createdAt,value
2023-05-19T00:01:21.595Z,100386.94
2023-05-19T00:03:59.100Z,100381.72
2023-05-19T00:06:33.531Z,100382.59
2023-05-19T00:09:20.474Z,100388.59
2023-05-19T00:11:47.729Z,100389.34
2023-05-19T00:14:14.865Z,100398.28
2023-05-19T00:16:42.470Z,100394.28
2023-05-19T00:19:12.561Z,100387.03
2023-05-19T00:21:40.545Z,100396.13
2023-05-19T00:24:08.060Z,100399.69
2023-05-19T00:26:35.119Z,100405.81
2023-05-19T00:29:05.641Z,100399.78
2023-05-19T00:31:34.340Z,100400.59
2023-05-19T00:34:02.071Z,100403.47
2023-05-19T00:36:29.136Z,100401.63
2023-05-19T00:38:56.444Z,100400.03
2023-05-19T00:41:23.483Z,100406.13
2023-05-19T00:43:51.345Z,100405.09
2023-05-19T00:46:19.893Z,100408.84
2023-05-19T00:48:47.922Z,100412.31
2023-05-19T00:51:17.246Z,100413.25
2023-05-19T00:53:48.662Z,100405.19
2023-05-19T00:56:16.911Z,100412.69
2023-05-19T00:58:44.317Z,100413.50
2023-05-19T01:01:12.410Z,100417.19
2023-05-19T01:03:40.380Z,100420.25
2023-05-19T01:06:08.174Z,100417.63
2023-05-19T01:08:37.468Z,100412.31
2023-05-19T01:11:06.875Z,100427.97
2023-05-19T01:13:35.613Z,100428.16
2023-05-19T01:16:40.833Z,100430.00
2023-05-19T01:19:28.004Z,100414.53
2023-05-19T01:22:23.005Z,100438.69
2023-05-19T01:25:02.293Z,100431.41
2023-05-19T01:28:08.255Z,100433.38
2023-05-19T01:30:45.538Z,100425.69
2023-05-19T01:33:14.875Z,100430.47
2023-05-19T01:35:43.934Z,100433.44
2023-05-19T01:38:13.057Z,100419.25
2023-05-19T01:40:42.083Z,100430.72
2023-05-19T01:43:12.681Z,100431.88
2023-05-19T01:45:40.770Z,100437.75
2023-05-19T01:48:10.883Z,100432.66
2023-05-19T01:50:39.921Z,100433.47
2023-05-19T01:53:07.028Z,100424.69
2023-05-19T01:55:42.478Z,100433.78
2023-05-19T01:58:22.960Z,100437.22
2023-05-19T02:01:09.195Z,100443.88
2023-05-19T02:04:33.131Z,100441.91
2023-05-19T02:07:12.654Z,100443.56
2023-05-19T02:09:53.269Z,100460.59
2023-05-19T02:12:28.837Z,100449.75
2023-05-19T02:14:58.999Z,100452.47
2023-05-19T02:17:29.798Z,100455.00
2023-05-19T02:19:57.075Z,100459.50
2023-05-19T02:22:24.272Z,100469.25
2023-05-19T02:24:51.964Z,100470.16
2023-05-19T02:27:19.191Z,100477.09
2023-05-19T02:29:46.184Z,100473.94
2023-05-19T02:32:15.158Z,100481.66
2023-05-19T02:34:45.789Z,100480.59
2023-05-19T02:37:14.734Z,100491.31
2023-05-19T02:39:42.701Z,100479.19
2023-05-19T02:42:09.976Z,100476.13
2023-05-19T02:44:37.024Z,100481.53
2023-05-19T02:47:04.190Z,100480.28
2023-05-19T02:49:36.071Z,100487.03
2023-05-19T02:52:07.167Z,100488.00
2023-05-19T02:54:34.987Z,100489.25
2023-05-19T02:57:02.250Z,100491.22
2023-05-19T02:59:29.296Z,100497.59
2023-05-19T03:01:59.342Z,100490.75
2023-05-19T03:04:26.503Z,100487.84
2023-05-19T03:06:54.373Z,100485.66
2023-05-19T03:09:21.601Z,100486.44
2023-05-19T03:11:48.678Z,100483.31
2023-05-19T03:14:15.768Z,100482.72
2023-05-19T03:16:42.860Z,100474.91
2023-05-19T03:19:10.134Z,100484.31
2023-05-19T03:21:37.621Z,100484.66
2023-05-19T03:24:05.079Z,100479.81
2023-05-19T03:26:33.328Z,100482.81
2023-05-19T03:29:01.124Z,100492.47
2023-05-19T03:31:30.791Z,100493.81
2023-05-19T03:33:59.382Z,100499.06
2023-05-19T03:36:32.326Z,100503.09
2023-05-19T03:39:00.940Z,100509.47
2023-05-19T03:41:28.967Z,100506.97
2023-05-19T03:43:56.220Z,100514.53
2023-05-19T03:46:23.514Z,100507.66
2023-05-19T03:49:08.904Z,100515.41
2023-05-19T03:51:56.960Z,100515.94
2023-05-19T03:54:45.063Z,100517.28
2023-05-19T03:57:12.512Z,100518.16
2023-05-19T03:59:41.497Z,100519.22
2023-05-19T04:02:08.759Z,100523.28
2023-05-19T04:04:38.168Z,100524.72
2023-05-19T04:07:05.432Z,100527.91
2023-05-19T04:09:35.256Z,100525.25
2023-05-19T04:12:05.714Z,100527.16
2023-05-19T04:14:32.814Z,100523.53
2023-05-19T04:17:00.446Z,100526.09
2023-05-19T04:19:27.668Z,100525.31
2023-05-19T04:21:55.771Z,100538.50
2023-05-19T04:24:22.995Z,100530.06
2023-05-19T04:26:50.246Z,100530.19
2023-05-19T04:29:18.598Z,100542.19
2023-05-19T04:31:45.824Z,100541.13
2023-05-19T04:34:13.000Z,100549.41
2023-05-19T04:36:40.164Z,100549.97
2023-05-19T04:39:09.793Z,100551.91
2023-05-19T04:41:40.633Z,100549.97
2023-05-19T04:44:09.537Z,100554.84
2023-05-19T04:46:37.746Z,100557.88
2023-05-19T04:49:05.900Z,100555.84
2023-05-19T04:51:33.224Z,100551.59
2023-05-19T04:54:01.734Z,100561.28
2023-05-19T04:56:29.071Z,100552.34
2023-05-19T04:58:57.385Z,100551.75
2023-05-19T05:01:26.679Z,100549.09
2023-05-19T05:03:55.803Z,100544.09
2023-05-19T05:06:23.201Z,100548.34
2023-05-19T05:08:51.225Z,100554.59
2023-05-19T05:11:18.950Z,100549.78
2023-05-19T05:13:47.314Z,100543.00
2023-05-19T05:16:15.073Z,100546.78
2023-05-19T05:18:44.939Z,100550.56
2023-05-19T05:21:12.901Z,100548.91
2023-05-19T05:23:41.039Z,100536.75
2023-05-19T05:26:19.984Z,100544.50
2023-05-19T05:28:49.831Z,100550.28
2023-05-19T05:31:17.394Z,100554.31
2023-05-19T05:33:45.256Z,100557.16
2023-05-19T05:36:14.246Z,100546.47
2023-05-19T05:38:41.427Z,100555.59
2023-05-19T05:41:08.806Z,100556.84
2023-05-19T05:43:37.211Z,100553.25
2023-05-19T05:46:05.218Z,100552.59
2023-05-19T05:48:32.635Z,100551.75
2023-05-19T05:51:00.538Z,100553.97
2023-05-19T05:53:34.826Z,100558.06
2023-05-19T05:56:02.361Z,100564.38
2023-05-19T05:58:40.834Z,100563.84
2023-05-19T06:01:11.568Z,100565.22
2023-05-19T06:03:44.543Z,100552.47
2023-05-19T06:06:14.748Z,100570.75
2023-05-19T06:08:42.030Z,100564.19
2023-05-19T06:11:09.528Z,100567.22
2023-05-19T06:13:39.336Z,100560.63
2023-05-19T06:16:09.129Z,100563.56
2023-05-19T06:18:40.762Z,100574.03
2023-05-19T06:21:10.380Z,100562.28
2023-05-19T06:23:37.973Z,100575.09
2023-05-19T06:26:07.222Z,100569.69
2023-05-19T06:28:34.687Z,100570.22
2023-05-19T06:31:01.893Z,100560.69
2023-05-19T06:33:49.225Z,100561.41
2023-05-19T06:36:16.836Z,100562.63
2023-05-19T06:38:45.480Z,100567.00
2023-05-19T06:41:13.329Z,100572.22
2023-05-19T06:43:41.246Z,100578.44
2023-05-19T06:46:13.626Z,100582.03
2023-05-19T06:48:40.803Z,100578.47
2023-05-19T06:51:10.303Z,100583.44
2023-05-19T06:53:39.226Z,100582.66
2023-05-19T06:56:09.005Z,100595.44
2023-05-19T06:58:39.623Z,100590.84
2023-05-19T07:01:07.122Z,100598.69
2023-05-19T07:03:41.284Z,100604.28
2023-05-19T07:06:09.579Z,100595.13
2023-05-19T07:08:37.501Z,100605.84
2023-05-19T07:11:06.480Z,100591.94
2023-05-19T07:13:33.759Z,100595.66
2023-05-19T07:16:00.978Z,100592.00
2023-05-19T07:18:31.973Z,100592.81
2023-05-19T07:20:59.571Z,100594.50
2023-05-19T07:23:26.937Z,100599.91
2023-05-19T07:25:56.573Z,100601.31
2023-05-19T07:28:23.839Z,100593.16
2023-05-19T07:30:50.949Z,100599.38
2023-05-19T07:33:18.104Z,100600.53
2023-05-19T07:35:45.785Z,100606.81
2023-05-19T07:38:12.807Z,100610.09
2023-05-19T07:40:39.859Z,100605.41
2023-05-19T07:43:06.897Z,100602.06
2023-05-19T07:45:34.074Z,100598.84
2023-05-19T07:48:01.287Z,100615.31
2023-05-19T07:50:28.781Z,100609.50
2023-05-19T07:52:56.273Z,100612.75
2023-05-19T07:55:23.404Z,100599.78
2023-05-19T07:57:51.309Z,100609.16
2023-05-19T08:00:18.614Z,100611.41
2023-05-19T08:02:46.024Z,100612.66
2023-05-19T08:05:13.253Z,100604.94
2023-05-19T08:07:40.801Z,100604.22
2023-05-19T08:10:08.265Z,100602.78
2023-05-19T08:12:35.534Z,100606.50
2023-05-19T08:15:02.612Z,100611.75
2023-05-19T08:17:29.940Z,100615.69
2023-05-19T08:19:57.290Z,100612.72
2023-05-19T08:22:24.522Z,100625.16
2023-05-19T08:24:51.962Z,100634.41
2023-05-19T08:27:18.971Z,100634.31
2023-05-19T08:29:45.942Z,100625.44
2023-05-19T08:32:13.498Z,100629.66
2023-05-19T08:34:41.488Z,100631.25
2023-05-19T08:37:08.546Z,100627.09
2023-05-19T08:39:35.775Z,100626.72
2023-05-19T08:42:02.855Z,100619.69
2023-05-19T08:44:31.052Z,100630.13
2023-05-19T08:47:02.994Z,100627.91
2023-05-19T08:49:33.638Z,100620.31
2023-05-19T08:52:15.406Z,100631.31
2023-05-19T08:55:01.273Z,100630.56
2023-05-19T08:57:28.810Z,100616.97
2023-05-19T08:59:56.842Z,100622.69
2023-05-19T09:02:24.604Z,100616.28
2023-05-19T09:04:52.986Z,100612.88
2023-05-19T09:07:21.309Z,100618.50
2023-05-19T09:09:49.067Z,100605.63
2023-05-19T09:12:16.345Z,100606.06
2023-05-19T09:14:43.956Z,100607.88
2023-05-19T09:17:11.122Z,100612.88
2023-05-19T09:19:44.043Z,100610.28
2023-05-19T09:22:11.835Z,100616.03
2023-05-19T09:24:40.525Z,100611.22
2023-05-19T09:27:08.494Z,100611.34
2023-05-19T09:29:35.539Z,100611.13
2023-05-19T09:32:05.368Z,100610.25
2023-05-19T09:34:32.601Z,100623.94
2023-05-19T09:37:00.054Z,100606.72
2023-05-19T09:39:28.880Z,100606.25
2023-05-19T09:41:58.877Z,100610.47
2023-05-19T09:44:30.674Z,100606.19
2023-05-19T09:47:01.048Z,100618.88
2023-05-19T09:49:30.448Z,100635.09
2023-05-19T09:51:59.201Z,100630.56
2023-05-19T09:54:29.949Z,100632.34
2023-05-19T09:57:02.570Z,100634.88
2023-05-19T09:59:32.879Z,100626.78
2023-05-19T10:02:02.576Z,100631.03
2023-05-19T10:04:31.264Z,100626.94
2023-05-19T10:07:05.776Z,100630.44
2023-05-19T10:09:34.336Z,100636.94
2023-05-19T10:12:02.647Z,100638.78
2023-05-19T10:14:30.202Z,100641.31
2023-05-19T10:16:59.276Z,100614.16
2023-05-19T10:19:28.214Z,100635.75
2023-05-19T10:21:56.358Z,100625.38
2023-05-19T10:24:23.406Z,100632.53
2023-05-19T10:26:58.115Z,100628.97
2023-05-19T10:29:39.503Z,100629.72
2023-05-19T10:32:17.730Z,100625.22
2023-05-19T10:34:53.749Z,100626.25
2023-05-19T10:37:33.263Z,100625.84
2023-05-19T10:40:01.382Z,100627.16
2023-05-19T10:42:50.591Z,100622.56
2023-05-19T10:45:22.734Z,100635.00
2023-05-19T10:47:55.000Z,100636.38
2023-05-19T10:50:22.139Z,100633.38
2023-05-19T10:52:58.203Z,100629.66
2023-05-19T10:55:52.250Z,100614.44
2023-05-19T10:58:49.649Z,100620.38
2023-05-19T11:01:18.697Z,100628.03
2023-05-19T11:03:47.420Z,100630.84
2023-05-19T11:06:18.265Z,100636.28
2023-05-19T11:08:45.313Z,100627.22
2023-05-19T11:11:17.006Z,100628.03
2023-05-19T11:13:48.296Z,100625.63
2023-05-19T11:16:18.381Z,100621.34
2023-05-19T11:18:49.672Z,100632.25
2023-05-19T11:21:19.542Z,100621.81
2023-05-19T11:23:46.820Z,100628.84
2023-05-19T11:26:15.430Z,100630.75
2023-05-19T11:28:43.319Z,100627.75
2023-05-19T11:31:11.626Z,100602.28
2023-05-19T11:33:40.096Z,100608.19
2023-05-19T11:36:08.277Z,100620.16
2023-05-19T11:38:35.630Z,100607.06
2023-05-19T11:41:03.886Z,100614.97
2023-05-19T11:43:31.079Z,100613.97
2023-05-19T11:45:58.265Z,100618.94
2023-05-19T11:48:26.556Z,100595.63
2023-05-19T11:50:53.970Z,100596.91
2023-05-19T11:53:21.246Z,100606.22
2023-05-19T11:55:49.210Z,100599.31
2023-05-19T11:58:17.499Z,100599.81
2023-05-19T12:00:48.759Z,100599.19
2023-05-19T12:03:19.878Z,100602.84
2023-05-19T12:05:49.313Z,100596.06
2023-05-19T12:08:18.641Z,100600.06
2023-05-19T12:10:50.594Z,100613.84
2023-05-19T12:13:17.881Z,100603.53
2023-05-19T12:15:45.070Z,100601.31
2023-05-19T12:18:12.387Z,100603.31
2023-05-19T12:20:39.602Z,100600.84
2023-05-19T12:23:06.869Z,100605.59
2023-05-19T12:25:34.348Z,100585.50
2023-05-19T12:28:05.185Z,100593.63
2023-05-19T12:30:33.337Z,100591.31
2023-05-19T12:33:02.173Z,100587.25
2023-05-19T12:35:33.450Z,100577.38
2023-05-19T12:38:07.198Z,100596.81
2023-05-19T12:40:38.655Z,100597.31
2023-05-19T12:43:06.950Z,100590.84
2023-05-19T12:45:35.650Z,100581.75
2023-05-19T12:48:25.854Z,100599.28
2023-05-19T12:50:55.857Z,100581.34
2023-05-19T12:53:23.101Z,100594.72
2023-05-19T12:55:52.850Z,100602.72
2023-05-19T12:58:19.925Z,100596.31
2023-05-19T13:00:48.550Z,100597.34
2023-05-19T13:03:22.374Z,100611.47
2023-05-19T13:05:50.995Z,100604.66
2023-05-19T13:08:24.168Z,100607.50
2023-05-19T13:10:51.429Z,100601.25
2023-05-19T13:13:19.516Z,100608.31
2023-05-19T13:15:49.191Z,100599.94
2023-05-19T13:18:17.520Z,100606.06
2023-05-19T13:20:45.387Z,100591.09
2023-05-19T13:23:13.548Z,100594.78
2023-05-19T13:25:42.233Z,100591.16
2023-05-19T13:28:09.969Z,100595.25
2023-05-19T13:30:39.253Z,100595.81
2023-05-19T13:33:06.815Z,100595.25
2023-05-19T13:35:37.568Z,100594.63
2023-05-19T13:38:11.761Z,100608.50
2023-05-19T13:43:27.577Z,100603.19
2023-05-19T13:45:54.736Z,100603.97
2023-05-19T13:48:21.878Z,100594.28
2023-05-19T13:50:48.995Z,100587.31
2023-05-19T13:51:32.936Z,100602.38
2023-05-19T13:53:15.966Z,100596.63
2023-05-19T13:55:43.099Z,100591.25
2023-05-19T13:58:11.262Z,100604.13
2023-05-19T14:00:38.420Z,100601.66
2023-05-19T14:03:05.573Z,100601.88
2023-05-19T14:05:32.929Z,100601.34
2023-05-19T14:08:01.245Z,100610.09
2023-05-19T14:10:28.338Z,100602.03
2023-05-19T14:13:25.989Z,100607.44
2023-05-19T14:15:43.309Z,100607.34
2023-05-19T14:18:10.348Z,100612.75
2023-05-19T14:20:37.774Z,100610.28
2023-05-19T14:23:05.069Z,100609.84
2023-05-19T14:25:32.049Z,100611.81
2023-05-19T14:27:59.180Z,100612.00
2023-05-19T14:30:26.318Z,100616.53
2023-05-19T14:32:53.468Z,100623.47
2023-05-19T14:35:20.991Z,100623.91
2023-05-19T14:37:48.017Z,100616.78
2023-05-19T14:40:15.203Z,100624.84
2023-05-19T14:42:42.200Z,100622.56
2023-05-19T14:45:10.166Z,100629.47
2023-05-19T14:47:37.216Z,100621.09
2023-05-19T14:50:04.630Z,100621.06
2023-05-19T14:52:31.620Z,100615.69
2023-05-19T14:54:58.644Z,100629.38
2023-05-19T14:57:25.880Z,100626.31
2023-05-19T14:59:52.900Z,100629.91
2023-05-19T15:02:19.939Z,100618.59
2023-05-19T15:04:47.051Z,100631.66
2023-05-19T15:07:14.022Z,100642.44
2023-05-19T15:09:41.221Z,100643.00
2023-05-19T15:12:08.248Z,100636.66
2023-05-19T15:14:35.264Z,100638.59
2023-05-19T15:17:02.245Z,100650.50
2023-05-19T15:19:29.438Z,100642.97
2023-05-19T15:21:56.524Z,100646.56
2023-05-19T15:24:24.368Z,100647.88
2023-05-19T15:26:52.189Z,100643.56
2023-05-19T15:29:19.210Z,100646.69
2023-05-19T15:31:46.499Z,100653.72
2023-05-19T15:34:13.593Z,100652.00
2023-05-19T15:36:40.735Z,100649.50
2023-05-19T15:39:07.827Z,100648.31
2023-05-19T15:41:34.817Z,100651.88
2023-05-19T15:44:02.709Z,100656.28
2023-05-19T15:46:30.009Z,100660.84
2023-05-19T15:48:57.073Z,100645.59
2023-05-19T15:51:24.300Z,100664.72
2023-05-19T15:53:51.544Z,100658.22
2023-05-19T15:56:19.529Z,100661.69
2023-05-19T15:58:46.618Z,100667.44
2023-05-19T16:01:15.417Z,100662.28
2023-05-19T16:03:42.842Z,100661.03
2023-05-19T16:06:10.227Z,100665.56
2023-05-19T16:08:38.255Z,100668.28
2023-05-19T16:11:05.787Z,100670.75
2023-05-19T16:13:33.952Z,100668.94
2023-05-19T16:16:01.225Z,100678.09
2023-05-19T16:18:29.427Z,100685.00
2023-05-19T16:20:56.644Z,100689.78
2023-05-19T16:23:24.908Z,100694.41
2023-05-19T16:25:52.414Z,100702.41
2023-05-19T16:28:19.616Z,100698.81
2023-05-19T16:30:46.824Z,100702.81
2023-05-19T16:33:13.931Z,100707.00
2023-05-19T16:35:40.984Z,100699.28
2023-05-19T16:38:08.372Z,100701.31
2023-05-19T16:40:35.746Z,100704.28
2023-05-19T16:43:02.992Z,100711.06
2023-05-19T16:45:30.233Z,100719.16
2023-05-19T16:47:57.608Z,100724.09
2023-05-19T16:50:24.708Z,100717.53
2023-05-19T16:52:51.790Z,100723.22
2023-05-19T16:55:20.197Z,100731.16
2023-05-19T16:57:47.494Z,100742.47
2023-05-19T17:00:15.696Z,100734.97
2023-05-19T17:02:43.027Z,100737.53
2023-05-19T17:05:10.335Z,100744.38
2023-05-19T17:07:37.338Z,100744.06
2023-05-19T17:10:04.819Z,100741.25
2023-05-19T17:12:31.884Z,100748.25
2023-05-19T17:14:58.916Z,100742.28
2023-05-19T17:17:26.016Z,100743.06
2023-05-19T17:19:53.136Z,100748.69
2023-05-19T17:22:20.280Z,100741.81
2023-05-19T17:24:47.475Z,100744.41
2023-05-19T17:27:15.296Z,100746.13
2023-05-19T17:29:42.539Z,100746.56
2023-05-19T17:32:09.717Z,100751.34
2023-05-19T17:34:36.815Z,100748.38
2023-05-19T17:37:04.131Z,100757.13
2023-05-19T17:39:31.260Z,100750.59
2023-05-19T17:41:58.433Z,100750.41
2023-05-19T17:44:25.573Z,100747.72
2023-05-19T17:46:52.912Z,100746.09
2023-05-19T17:49:21.114Z,100757.19
2023-05-19T17:51:48.221Z,100753.19
2023-05-19T17:54:15.676Z,100745.31
2023-05-19T17:56:44.434Z,100744.13
2023-05-19T17:59:11.998Z,100751.09
2023-05-19T18:01:40.788Z,100754.16
2023-05-19T18:04:08.484Z,100766.38
2023-05-19T18:06:38.646Z,100757.91
2023-05-19T18:09:09.231Z,100756.34
2023-05-19T18:11:36.696Z,100768.84
2023-05-19T18:14:03.798Z,100753.44
2023-05-19T18:16:31.004Z,100763.56
2023-05-19T18:18:58.302Z,100763.78
2023-05-19T18:21:25.471Z,100768.91
2023-05-19T18:23:52.533Z,100768.91
2023-05-19T18:26:19.684Z,100779.28
2023-05-19T18:28:46.831Z,100789.88
2023-05-19T18:31:19.820Z,100807.81
2023-05-19T18:33:47.535Z,100808.25
2023-05-19T18:36:16.801Z,100800.72
2023-05-19T18:38:44.013Z,100805.97
2023-05-19T18:41:11.143Z,100799.78
2023-05-19T18:43:38.961Z,100800.56
2023-05-19T18:46:06.897Z,100793.38
2023-05-19T18:48:33.971Z,100796.38
2023-05-19T18:51:03.585Z,100801.63
2023-05-19T18:53:34.951Z,100793.28
2023-05-19T18:56:04.233Z,100798.16
2023-05-19T18:58:31.272Z,100805.75
2023-05-19T19:00:58.952Z,100792.25
2023-05-19T19:03:26.710Z,100796.97
2023-05-19T19:05:55.640Z,100794.22
2023-05-19T19:08:23.160Z,100795.78
2023-05-19T19:10:54.824Z,100791.56
2023-05-19T19:13:22.662Z,100801.03
2023-05-19T19:15:49.770Z,100798.91
2023-05-19T19:18:17.075Z,100798.72
2023-05-19T19:20:44.309Z,100797.28
2023-05-19T19:23:11.555Z,100807.09
2023-05-19T19:25:38.672Z,100802.03
2023-05-19T19:28:06.056Z,100810.16
2023-05-19T19:30:33.572Z,100807.63
2023-05-19T19:33:00.947Z,100806.22
2023-05-19T19:35:28.037Z,100800.09
2023-05-19T19:37:55.217Z,100805.88
2023-05-19T19:40:22.216Z,100804.25
2023-05-19T19:42:49.265Z,100797.44
2023-05-19T19:45:16.723Z,100802.53
2023-05-19T19:47:44.008Z,100798.84
2023-05-19T19:50:11.771Z,100798.56
2023-05-19T19:52:38.968Z,100801.66
2023-05-19T19:55:06.607Z,100794.44
2023-05-19T19:57:34.414Z,100800.16
2023-05-19T20:00:08.585Z,100799.00
2023-05-19T20:02:45.382Z,100806.25
2023-05-19T20:05:18.877Z,100800.78
2023-05-19T20:07:45.972Z,100805.25
2023-05-19T20:10:13.033Z,100813.94
2023-05-19T20:12:40.040Z,100808.59
2023-05-19T20:15:08.033Z,100801.03
2023-05-19T20:17:35.121Z,100802.78
2023-05-19T20:20:04.899Z,100810.78
2023-05-19T20:22:32.069Z,100801.97
2023-05-19T20:24:59.223Z,100809.47
2023-05-19T20:27:26.265Z,100814.03
2023-05-19T20:29:53.349Z,100808.56
2023-05-19T20:32:20.449Z,100812.19
2023-05-19T20:34:47.591Z,100810.91
2023-05-19T20:37:14.888Z,100812.06
2023-05-19T20:39:41.934Z,100808.72
2023-05-19T20:42:09.119Z,100804.19
2023-05-19T20:44:36.136Z,100800.38
2023-05-19T20:47:04.355Z,100807.66
2023-05-19T20:49:31.484Z,100798.72
2023-05-19T20:51:58.620Z,100798.72
2023-05-19T20:54:25.799Z,100800.59
2023-05-19T20:56:52.928Z,100799.44
2023-05-19T20:59:20.025Z,100796.47
2023-05-19T21:01:47.610Z,100788.59
2023-05-19T21:04:14.775Z,100789.47
2023-05-19T21:06:42.021Z,100787.22
2023-05-19T21:09:09.665Z,100791.47
2023-05-19T21:11:36.765Z,100790.13
2023-05-19T21:14:04.509Z,100783.75
2023-05-19T21:16:32.174Z,100790.81
2023-05-19T21:18:59.713Z,100786.19
2023-05-19T21:21:26.831Z,100782.59
2023-05-19T21:23:53.942Z,100785.72
2023-05-19T21:26:22.257Z,100782.91
2023-05-19T21:28:49.381Z,100779.69
2023-05-19T21:31:16.775Z,100783.78
2023-05-19T21:33:44.112Z,100778.66
2023-05-19T21:36:11.158Z,100783.63
2023-05-19T21:38:38.352Z,100780.41
2023-05-19T21:41:05.538Z,100776.06
2023-05-19T21:43:32.573Z,100777.56
2023-05-19T21:45:59.786Z,100769.94
2023-05-19T21:48:26.916Z,100772.22
2023-05-19T21:50:54.755Z,100769.72
2023-05-19T21:53:21.910Z,100771.41
2023-05-19T21:55:48.956Z,100777.31
2023-05-19T21:58:16.337Z,100777.44
2023-05-19T22:00:51.417Z,100776.00
2023-05-19T22:03:19.766Z,100782.69
2023-05-19T22:05:50.592Z,100781.88
2023-05-19T22:08:18.969Z,100788.88
2023-05-19T22:10:49.640Z,100781.53
2023-05-19T22:13:16.820Z,100780.41
2023-05-19T22:15:43.969Z,100775.06
2023-05-19T22:18:11.797Z,100777.56
2023-05-19T22:20:39.100Z,100771.50
2023-05-19T22:23:06.273Z,100779.22
2023-05-19T22:25:33.413Z,100771.53
2023-05-19T22:28:01.422Z,100771.34
2023-05-19T22:30:28.589Z,100771.72
2023-05-19T22:32:55.795Z,100763.28
2023-05-19T22:35:23.142Z,100770.97
2023-05-19T22:37:50.232Z,100753.16
2023-05-19T22:40:17.957Z,100754.09
2023-05-19T22:42:45.068Z,100757.19
2023-05-19T22:45:12.287Z,100750.88
2023-05-19T22:47:39.490Z,100753.47
2023-05-19T22:50:10.029Z,100745.13
2023-05-19T22:52:37.523Z,100743.41
2023-05-19T22:55:05.108Z,100744.25
2023-05-19T22:57:32.180Z,100751.31
2023-05-19T22:59:59.338Z,100748.72
2023-05-19T23:02:27.065Z,100745.59
2023-05-19T23:04:54.197Z,100751.53
2023-05-19T23:07:21.382Z,100746.31
2023-05-19T23:09:48.451Z,100749.94
2023-05-19T23:12:15.803Z,100747.47
2023-05-19T23:14:42.848Z,100748.88
2023-05-19T23:17:10.028Z,100742.66
2023-05-19T23:19:37.251Z,100743.72
2023-05-19T23:22:04.407Z,100747.84
2023-05-19T23:24:31.440Z,100752.13
2023-05-19T23:26:58.575Z,100754.97
2023-05-19T23:29:25.862Z,100752.66
2023-05-19T23:31:53.102Z,100749.59
2023-05-19T23:34:20.674Z,100739.94
2023-05-19T23:36:47.778Z,100752.88
2023-05-19T23:39:14.837Z,100754.31
2023-05-19T23:41:41.954Z,100759.84
2023-05-19T23:44:09.298Z,100758.22
2023-05-19T23:46:36.404Z,100757.06
2023-05-19T23:49:03.550Z,100754.38
2023-05-19T23:51:31.443Z,100757.06
2023-05-19T23:53:58.674Z,100749.44
2023-05-19T23:56:25.720Z,100743.25
2023-05-19T23:58:52.760Z,100746.91
